Time;durP1;ratioP1;P1;durP2;ratioP2;P2;SDS_P1;SDS_P2;PMS_P1;PMS_P2;Temp;Humidity;BMP_temperature;BMP_pressure;BME280_temperature;BME280_humidity;BME280_pressure;Samples;Min_cycle;Max_cycle;Signal;HPM_P1;HPM_P2
2022/06/10 00:01:47;;;;;;;10.88;3.60;;;11.10;99.90;;;;;;5008743;28;20077;-70
2022/06/10 00:04:13;;;;;;;11.95;3.85;;;11.10;99.90;;;;;;5007579;28;20049;-70
2022/06/10 00:06:38;;;;;;;11.77;3.47;;;11.10;99.90;;;;;;4994443;28;20050;-70
2022/06/10 00:09:04;;;;;;;9.50;3.38;;;11.10;99.90;;;;;;5007677;28;20042;-70
2022/06/10 00:11:30;;;;;;;7.53;3.38;;;11.10;99.90;;;;;;5008897;28;20045;-70
2022/06/10 00:13:56;;;;;;;10.77;3.90;;;11.10;99.90;;;;;;5009041;28;20064;-70
2022/06/10 00:16:22;;;;;;;7.38;3.08;;;11.10;99.90;;;;;;5009659;28;20049;-70
2022/06/10 00:18:48;;;;;;;11.00;3.53;;;11.10;99.90;;;;;;5009571;28;20038;-70
2022/06/10 00:21:16;;;;;;;11.02;3.83;;;11.10;99.90;;;;;;5010773;28;20061;-70
2022/06/10 00:23:42;;;;;;;9.82;3.45;;;11.10;99.90;;;;;;5006560;28;20120;-70
2022/06/10 00:26:08;;;;;;;9.68;3.80;;;11.10;99.90;;;;;;4992485;28;20133;-70
2022/06/10 00:28:35;;;;;;;6.30;3.58;;;11.10;99.90;;;;;;4993520;28;20181;-70
2022/06/10 00:31:01;;;;;;;8.73;3.13;;;11.10;99.90;;;;;;5006581;28;20057;-70
2022/06/10 00:33:26;;;;;;;8.05;3.13;;;11.10;99.90;;;;;;5007599;28;20046;-70
2022/06/10 00:35:52;;;;;;;6.25;3.42;;;11.10;99.90;;;;;;4991648;28;20050;-70
2022/06/10 00:38:19;;;;;;;10.43;3.40;;;11.10;99.90;;;;;;4991659;28;20493;-70
2022/06/10 00:40:51;;;;;;;9.35;3.42;;;11.10;99.90;;;;;;5004786;28;20038;-70
2022/06/10 00:43:20;;;;;;;9.10;3.22;;;11.10;99.90;;;;;;5008146;28;20041;-70
2022/06/10 00:45:51;;;;;;;10.88;3.63;;;11.10;99.90;;;;;;5009215;28;20049;-70
2022/06/10 00:48:25;;;;;;;9.43;3.38;;;11.10;99.90;;;;;;5009077;28;20060;-70
2022/06/10 00:50:51;;;;;;;7.53;3.22;;;11.10;99.90;;;;;;5007778;28;20064;-70
2022/06/10 00:53:21;;;;;;;9.77;2.78;;;11.10;99.90;;;;;;5007114;28;20446;-70
2022/06/10 00:55:49;;;;;;;8.70;2.90;;;11.00;99.90;;;;;;5006925;28;20413;-69
2022/06/10 00:58:27;;;;;;;11.35;3.17;;;11.00;99.90;;;;;;5006853;28;20124;-69
2022/06/10 01:00:54;;;;;;;10.23;3.10;;;11.00;99.90;;;;;;5006337;28;20034;-69
2022/06/10 01:03:19;;;;;;;9.27;2.70;;;11.00;99.90;;;;;;5007765;28;20042;-69
2022/06/10 01:05:45;;;;;;;7.65;2.92;;;11.00;99.90;;;;;;5005685;28;20044;-69
2022/06/10 01:08:15;;;;;;;9.02;3.10;;;10.90;99.90;;;;;;5008315;28;20206;-69
2022/06/10 01:10:53;;;;;;;9.50;2.30;;;10.90;99.90;;;;;;5007018;28;20133;-70
2022/06/10 01:13:38;;;;;;;7.50;2.78;;;10.90;99.90;;;;;;5007642;28;20049;-69
2022/06/10 01:16:13;;;;;;;9.02;2.97;;;10.90;99.90;;;;;;5004431;28;20042;-69
2022/06/10 01:18:51;;;;;;;5.20;2.33;;;10.80;99.90;;;;;;5008390;28;20053;-69
2022/06/10 01:21:17;;;;;;;10.80;2.95;;;10.80;99.90;;;;;;5009394;28;20038;-69
2022/06/10 01:24:08;;;;;;;7.32;2.50;;;10.80;99.90;;;;;;5009228;28;20049;-69
2022/06/10 01:30:19;;;;;;;8.45;2.53;;;10.70;99.90;;;;;;5008917;28;20204;-69
2022/06/10 01:33:18;;;;;;;8.20;2.97;;;10.70;99.90;;;;;;5008836;28;20045;-69
2022/06/10 01:36:14;;;;;;;9.77;2.20;;;10.70;99.90;;;;;;5007782;28;20112;-69
2022/06/10 01:39:04;;;;;;;9.65;3.00;;;10.70;99.90;;;;;;5005097;28;20049;-69
2022/06/10 01:41:40;;;;;;;10.00;2.72;;;10.70;99.90;;;;;;5007486;28;20041;-69
2022/06/10 01:44:16;;;;;;;6.85;2.38;;;10.60;99.90;;;;;;5007530;28;20092;-69
2022/06/10 01:47:08;;;;;;;8.20;3.03;;;10.70;99.90;;;;;;4991169;28;20049;-69
2022/06/10 01:50:10;;;;;;;5.95;2.50;;;10.60;99.90;;;;;;4970693;28;20096;-70
2022/06/10 01:52:39;;;;;;;6.78;2.60;;;10.60;99.90;;;;;;4951844;28;20054;-69
2022/06/10 01:55:20;;;;;;;9.20;2.28;;;10.50;99.90;;;;;;5007510;28;20512;-69
2022/06/10 01:57:54;;;;;;;6.65;2.30;;;10.60;99.90;;;;;;5009656;28;20037;-69
2022/06/10 02:00:24;;;;;;;11.30;2.85;;;10.50;99.90;;;;;;5006375;28;20046;-70
2022/06/10 02:03:17;;;;;;;9.07;2.15;;;10.60;99.90;;;;;;5012577;28;20061;-69
2022/06/10 02:05:50;;;;;;;7.57;2.42;;;10.50;99.90;;;;;;4966678;28;20505;-69
2022/06/10 02:08:27;;;;;;;7.35;2.67;;;10.50;99.90;;;;;;5011614;28;20096;-69
2022/06/10 02:11:15;;;;;;;10.25;2.95;;;10.50;99.90;;;;;;5006441;28;20056;-69
2022/06/10 02:13:52;;;;;;;6.40;2.67;;;10.50;99.90;;;;;;5011991;28;20049;-69
2022/06/10 02:16:22;;;;;;;15.55;3.15;;;10.40;99.90;;;;;;5011320;28;20053;-69
2022/06/10 02:18:51;;;;;;;8.40;2.70;;;10.40;99.90;;;;;;5012122;28;20045;-69
2022/06/10 02:21:24;;;;;;;6.85;2.47;;;10.30;99.90;;;;;;5013941;28;20508;-69
2022/06/10 02:24:04;;;;;;;10.77;2.95;;;10.30;99.90;;;;;;5007847;28;20049;-69
2022/06/10 02:26:34;;;;;;;7.28;2.78;;;10.30;99.90;;;;;;5010611;28;20121;-70
2022/06/10 02:29:06;;;;;;;8.00;2.47;;;10.30;99.90;;;;;;5011373;28;20133;-69
2022/06/10 02:31:38;;;;;;;7.25;2.55;;;10.30;99.90;;;;;;5011129;28;20538;-69
2022/06/10 02:34:05;;;;;;;9.18;2.25;;;10.30;99.90;;;;;;5009500;28;20050;-69
2022/06/10 02:36:55;;;;;;;9.05;2.50;;;10.20;99.90;;;;;;5012588;28;20046;-69
2022/06/10 02:39:36;;;;;;;10.68;3.00;;;10.20;99.90;;;;;;5006979;28;20037;-69
2022/06/10 02:42:44;;;;;;;10.38;2.83;;;10.20;99.90;;;;;;5010425;28;20613;-69
2022/06/10 02:45:21;;;;;;;11.90;2.55;;;10.20;99.90;;;;;;4996481;28;20144;-70
2022/06/10 02:48:14;;;;;;;9.43;3.10;;;10.20;99.90;;;;;;5009062;28;20147;-69
2022/06/10 02:50:42;;;;;;;6.95;2.58;;;10.20;99.90;;;;;;5008522;28;20034;-69
2022/06/10 02:53:09;;;;;;;9.98;3.00;;;10.20;99.90;;;;;;5010565;28;20192;-69
2022/06/10 02:55:35;;;;;;;12.00;2.45;;;10.20;99.90;;;;;;4991830;28;20042;-69
2022/06/10 03:01:20;;;;;;;8.00;2.88;;;10.10;99.90;;;;;;5010470;28;20402;-69
2022/06/10 03:04:05;;;;;;;12.73;2.95;;;10.10;99.90;;;;;;5010349;28;20409;-69
2022/06/10 03:07:02;;;;;;;5.45;2.33;;;10.10;99.90;;;;;;5009170;28;20112;-69
2022/06/10 03:09:57;;;;;;;9.77;2.55;;;10.00;99.90;;;;;;5010251;28;20057;-69
2022/06/10 03:12:38;;;;;;;11.50;3.58;;;10.00;99.90;;;;;;4985345;28;20243;-69
2022/06/10 03:15:28;;;;;;;8.43;2.90;;;10.00;99.90;;;;;;5004005;28;20110;-69
2022/06/10 03:18:13;;;;;;;10.05;3.17;;;10.00;99.90;;;;;;5009235;28;20042;-69
2022/06/10 03:20:47;;;;;;;9.25;2.53;;;10.00;99.90;;;;;;5006717;28;20037;-69
2022/06/10 03:23:16;;;;;;;11.63;3.05;;;9.90;99.90;;;;;;5001685;28;20050;-69
2022/06/10 03:25:51;;;;;;;9.45;3.15;;;9.90;99.90;;;;;;5005389;28;20056;-69
2022/06/10 03:28:23;;;;;;;;;;;10.00;99.90;;;;;;5011158;28;20042;-69
2022/06/10 03:31:06;;;;;;;9.00;3.28;;;9.90;99.90;;;;;;5000619;28;19929;-69
2022/06/10 03:34:17;;;;;;;10.95;2.88;;;10.00;99.90;;;;;;5005754;28;20054;-69
2022/06/10 03:36:46;;;;;;;9.93;2.85;;;10.00;99.90;;;;;;4926543;29;20589;-69
2022/06/10 03:39:13;;;;;;;11.40;2.97;;;10.00;99.90;;;;;;4990497;28;20046;-69
2022/06/10 03:41:53;;;;;;;10.30;2.97;;;10.10;99.90;;;;;;4991768;28;20220;-69
2022/06/10 03:44:20;;;;;;;10.98;3.38;;;10.10;99.90;;;;;;5009411;28;20092;-69
2022/06/10 03:46:49;;;;;;;11.48;3.08;;;10.20;99.90;;;;;;4990197;28;20121;-69
2022/06/10 03:49:18;;;;;;;13.05;3.70;;;10.20;99.90;;;;;;4994160;28;20060;-69
2022/06/10 03:51:45;;;;;;;12.55;3.67;;;10.20;99.90;;;;;;4995592;28;20050;-70
2022/06/10 03:54:17;;;;;;;14.35;3.90;;;10.20;99.90;;;;;;5013793;28;20054;-70
2022/06/10 03:56:42;;;;;;;14.63;4.13;;;10.30;99.90;;;;;;5028207;28;20489;-70
2022/06/10 03:59:09;;;;;;;9.95;3.65;;;10.40;99.90;;;;;;5019427;28;20107;-69
2022/06/10 04:01:35;;;;;;;12.63;4.00;;;10.40;99.90;;;;;;5011009;28;20056;-69
2022/06/10 04:04:01;;;;;;;12.73;4.00;;;10.50;99.90;;;;;;5010696;28;20420;-70
2022/06/10 04:06:27;;;;;;;12.85;3.78;;;10.60;99.90;;;;;;5030168;28;20076;-70
2022/06/10 04:08:52;;;;;;;13.70;3.88;;;10.70;99.90;;;;;;5012548;28;20053;-70
2022/06/10 04:11:18;;;;;;;9.93;3.47;;;10.70;99.90;;;;;;5012458;28;20128;-69
2022/06/10 04:13:44;;;;;;;8.90;3.63;;;10.80;99.90;;;;;;5029878;28;20075;-69
2022/06/10 04:16:11;;;;;;;12.60;4.10;;;10.80;99.90;;;;;;4988076;28;20132;-69
2022/06/10 04:18:37;;;;;;;12.40;4.18;;;11.00;99.90;;;;;;5031614;28;20041;-69
2022/06/10 04:21:04;;;;;;;12.55;4.10;;;11.10;99.90;;;;;;5011033;28;20065;-70
2022/06/10 04:23:30;;;;;;;10.95;4.30;;;11.20;99.90;;;;;;5029588;28;20041;-70
2022/06/10 04:25:55;;;;;;;10.75;3.53;;;11.30;99.90;;;;;;5010341;28;20048;-71
2022/06/10 04:28:21;;;;;;;10.05;3.55;;;11.50;99.90;;;;;;5013700;28;20076;-70
2022/06/10 04:30:49;;;;;;;16.15;5.05;;;11.50;99.90;;;;;;5018908;28;20042;-70
2022/06/10 04:33:16;;;;;;;11.48;3.97;;;11.70;99.90;;;;;;5013111;28;20077;-70
2022/06/10 04:35:44;;;;;;;14.25;4.03;;;11.80;99.90;;;;;;5028514;28;20083;-70
2022/06/10 04:38:13;;;;;;;10.40;3.40;;;11.90;99.90;;;;;;5012102;28;20072;-70
2022/06/10 04:40:39;;;;;;;10.95;4.30;;;12.00;99.90;;;;;;5010549;28;20041;-70
2022/06/10 04:43:06;;;;;;;10.68;4.90;;;12.20;99.90;;;;;;5029230;28;20444;-70
2022/06/10 04:45:40;;;;;;;11.95;3.75;;;12.30;99.90;;;;;;5030234;28;20042;-70
2022/06/10 04:48:06;;;;;;;10.52;3.80;;;12.40;99.90;;;;;;5012273;28;20085;-70
2022/06/10 04:50:31;;;;;;;11.48;4.20;;;12.60;99.90;;;;;;5029389;28;20347;-70
2022/06/10 04:52:58;;;;;;;12.15;4.03;;;12.80;99.90;;;;;;5008945;28;20057;-71
2022/06/10 04:55:25;;;;;;;11.70;3.30;;;12.90;99.90;;;;;;4990329;28;20102;-70
2022/06/10 04:57:53;;;;;;;11.70;3.75;;;13.20;99.90;;;;;;5010717;28;20067;-71
2022/06/10 05:00:32;;;;;;;14.25;4.32;;;13.80;99.90;;;;;;5026167;28;20094;-71
2022/06/10 05:02:58;;;;;;;10.05;3.55;;;14.40;99.90;;;;;;5030566;28;20180;-71
2022/06/10 05:05:25;;;;;;;10.77;3.65;;;14.80;99.90;;;;;;5013637;28;20061;-71
2022/06/10 05:07:50;;;;;;;8.07;3.50;;;15.10;99.90;;;;;;5011220;28;20401;-71
2022/06/10 05:10:18;;;;;;;12.15;3.95;;;15.20;99.90;;;;;;5013760;28;20053;-71
2022/06/10 05:12:46;;;;;;;12.27;3.97;;;15.30;99.90;;;;;;5026962;28;20057;-71
2022/06/10 05:15:13;;;;;;;9.23;3.30;;;15.40;99.90;;;;;;5012617;28;20091;-71
2022/06/10 05:17:38;;;;;;;15.35;3.95;;;15.60;99.90;;;;;;5010217;28;20481;-71
2022/06/10 05:20:05;;;;;;;11.88;3.22;;;15.80;99.90;;;;;;5011540;28;20041;-71
2022/06/10 05:22:30;;;;;;;12.77;3.67;;;15.80;99.90;;;;;;5009864;28;20068;-71
2022/06/10 05:24:56;;;;;;;12.30;3.75;;;15.80;99.90;;;;;;5013011;28;20424;-71
2022/06/10 05:27:22;;;;;;;12.75;3.25;;;15.70;99.90;;;;;;5014869;28;20094;-71
2022/06/10 05:29:48;;;;;;;12.43;3.65;;;15.60;99.90;;;;;;5012615;28;20045;-71
2022/06/10 05:32:14;;;;;;;12.15;3.40;;;15.50;99.90;;;;;;5011341;28;20038;-71
2022/06/10 05:34:48;;;;;;;9.23;2.78;;;15.40;99.90;;;;;;5012788;28;20042;-71
2022/06/10 05:37:21;;;;;;;9.73;3.03;;;15.40;99.90;;;;;;5006082;28;20397;-71
2022/06/10 05:39:47;;;;;;;12.82;3.58;;;15.30;99.90;;;;;;5027753;28;20053;-71
2022/06/10 05:42:14;;;;;;;11.48;3.25;;;15.30;99.90;;;;;;5010066;28;20442;-71
2022/06/10 05:44:43;;;;;;;8.02;2.90;;;15.30;99.90;;;;;;5028148;28;20096;-71
2022/06/10 05:47:12;;;;;;;9.93;3.33;;;15.30;99.90;;;;;;5010745;28;20349;-71
2022/06/10 05:49:41;;;;;;;11.23;3.25;;;15.30;99.90;;;;;;5012379;28;20076;-72
2022/06/10 05:52:10;;;;;;;12.80;3.50;;;15.20;99.90;;;;;;5010284;28;20063;-70
2022/06/10 05:54:37;;;;;;;9.00;2.67;;;15.20;99.90;;;;;;5012220;28;20133;-71
2022/06/10 05:57:03;;;;;;;10.50;3.05;;;15.20;99.90;;;;;;4995811;28;20187;-71
2022/06/10 05:59:29;;;;;;;11.90;3.22;;;15.10;99.90;;;;;;5029462;28;20136;-71
2022/06/10 06:01:56;;;;;;;14.95;3.05;;;15.20;99.90;;;;;;5007825;28;20038;-71
2022/06/10 06:04:22;;;;;;;11.43;3.30;;;15.20;99.90;;;;;;5010377;28;20123;-71
2022/06/10 06:06:48;;;;;;;11.10;3.17;;;15.30;99.90;;;;;;5009728;28;20064;-71
2022/06/10 06:09:14;;;;;;;10.48;3.30;;;15.20;99.90;;;;;;5010049;28;20511;-71
2022/06/10 06:11:41;;;;;;;8.63;2.95;;;15.30;99.90;;;;;;5003216;28;20042;-71
2022/06/10 06:14:07;;;;;;;13.60;3.03;;;15.30;99.90;;;;;;5012703;28;20049;-71
2022/06/10 06:16:33;;;;;;;11.93;3.00;;;15.40;99.90;;;;;;5009809;28;20500;-71
2022/06/10 06:18:59;;;;;;;8.88;2.60;;;15.40;99.90;;;;;;5030848;28;20037;-71
2022/06/10 06:21:24;;;;;;;13.30;3.42;;;15.50;99.90;;;;;;5012961;28;20493;-71
2022/06/10 06:23:50;;;;;;;12.23;3.13;;;15.50;99.90;;;;;;5011626;28;20045;-71
2022/06/10 06:26:16;;;;;;;15.07;3.58;;;15.60;99.90;;;;;;5010912;28;20529;-71
2022/06/10 06:28:43;;;;;;;8.80;3.20;;;15.60;99.90;;;;;;5011472;28;20033;-71
2022/06/10 06:31:10;;;;;;;8.18;2.70;;;15.60;99.90;;;;;;4995296;28;20049;-71
2022/06/10 06:33:36;;;;;;;8.68;3.25;;;15.70;99.90;;;;;;5027473;28;20044;-71
2022/06/10 06:36:04;;;;;;;9.93;3.03;;;15.70;99.90;;;;;;5028518;28;20037;-71
2022/06/10 06:38:30;;;;;;;14.93;3.83;;;15.80;99.90;;;;;;5007409;28;20053;-71
2022/06/10 06:40:55;;;;;;;10.93;3.72;;;15.90;99.90;;;;;;5010208;28;20130;-71
2022/06/10 06:43:21;;;;;;;12.07;4.03;;;16.00;99.90;;;;;;5008586;28;20056;-71
2022/06/10 06:45:47;;;;;;;13.57;4.03;;;16.00;99.90;;;;;;5012170;28;20081;-71
2022/06/10 06:48:13;;;;;;;10.27;3.70;;;16.00;99.90;;;;;;5013585;28;20049;-71
2022/06/10 06:50:46;;;;;;;10.15;4.10;;;16.00;99.90;;;;;;5015639;28;20049;-71
2022/06/10 06:53:12;;;;;;;17.20;5.45;;;16.00;99.90;;;;;;5011775;28;20049;-71
2022/06/10 06:55:38;;;;;;;13.43;4.45;;;16.00;99.90;;;;;;4998302;28;20046;-71
2022/06/10 06:58:06;;;;;;;14.18;3.33;;;16.00;99.90;;;;;;5014841;28;20052;-71
2022/06/10 07:00:32;;;;;;;11.02;4.20;;;16.10;99.90;;;;;;5015814;28;20507;-71
2022/06/10 07:02:57;;;;;;;12.38;4.28;;;16.20;99.90;;;;;;5014533;28;20128;-70
2022/06/10 07:05:24;;;;;;;12.50;4.05;;;16.30;99.90;;;;;;5014906;28;20115;-71
2022/06/10 07:07:50;;;;;;;10.93;4.05;;;16.30;99.90;;;;;;5030563;28;20053;-71
2022/06/10 07:10:19;;;;;;;15.05;4.18;;;16.40;99.90;;;;;;5014378;28;20049;-71
2022/06/10 07:12:45;;;;;;;14.43;3.75;;;16.60;99.90;;;;;;5030949;28;20053;-71
2022/06/10 07:15:12;;;;;;;9.07;3.53;;;16.70;99.90;;;;;;5015236;28;20382;-71
2022/06/10 07:17:37;;;;;;;12.43;4.18;;;16.90;99.90;;;;;;4992747;28;20457;-71
2022/06/10 07:20:05;;;;;;;8.68;4.13;;;17.00;99.90;;;;;;4993025;28;20107;-72
2022/06/10 07:22:31;;;;;;;12.27;4.18;;;17.10;99.90;;;;;;5013444;28;20125;-71
2022/06/10 07:24:57;;;;;;;10.55;4.15;;;17.20;99.90;;;;;;5014601;28;20548;-71
2022/06/10 07:27:23;;;;;;;12.48;4.15;;;17.30;99.90;;;;;;4993245;28;20501;-71
2022/06/10 07:29:49;;;;;;;13.02;3.92;;;17.30;99.90;;;;;;4999817;28;20069;-71
2022/06/10 07:32:15;;;;;;;13.82;4.03;;;17.20;99.90;;;;;;4999998;28;20077;-71
2022/06/10 07:34:41;;;;;;;8.23;3.72;;;17.30;99.90;;;;;;4997350;28;20100;-71
2022/06/10 07:37:06;;;;;;;9.95;3.38;;;17.40;99.90;;;;;;5012308;28;20045;-72
2022/06/10 07:39:35;;;;;;;10.15;3.80;;;17.60;99.90;;;;;;5020918;28;20067;-71
2022/06/10 07:42:02;;;;;;;8.38;3.70;;;17.70;99.90;;;;;;5012681;28;20088;-71
2022/06/10 07:44:33;;;;;;;13.65;4.10;;;17.80;99.90;;;;;;5014284;28;20132;-71
2022/06/10 07:47:02;;;;;;;11.15;3.97;;;18.00;99.90;;;;;;5013491;28;20548;-71
2022/06/10 07:49:28;;;;;;;9.45;3.78;;;18.00;99.90;;;;;;5031017;28;20065;-71
2022/06/10 07:51:54;;;;;;;10.73;4.20;;;18.10;99.90;;;;;;5012103;28;20108;-71
2022/06/10 07:54:20;;;;;;;8.07;3.20;;;18.20;99.90;;;;;;5014256;28;20073;-71
2022/06/10 07:56:46;;;;;;;8.07;3.22;;;18.20;99.90;;;;;;5027586;28;20091;-71
2022/06/10 07:59:14;;;;;;;8.85;3.80;;;18.20;99.90;;;;;;5013905;28;20061;-72
2022/06/10 08:01:40;;;;;;;8.73;3.10;;;18.20;99.90;;;;;;5013326;28;20110;-72
2022/06/10 08:04:09;;;;;;;9.80;3.20;;;18.20;99.90;;;;;;5012663;28;20408;-71
2022/06/10 08:06:39;;;;;;;11.70;3.85;;;18.20;99.90;;;;;;5013044;28;20045;-71
2022/06/10 08:09:06;;;;;;;13.05;3.38;;;18.20;99.90;;;;;;5005236;28;20148;-71
2022/06/10 08:11:32;;;;;;;8.30;2.90;;;18.30;99.90;;;;;;5007757;28;20053;-71
2022/06/10 08:13:58;;;;;;;8.80;3.50;;;18.30;99.90;;;;;;5013363;28;20064;-71
2022/06/10 08:16:25;;;;;;;9.50;3.40;;;18.40;99.90;;;;;;5011636;28;20558;-71
2022/06/10 08:18:52;;;;;;;10.57;3.42;;;18.50;99.90;;;;;;5011472;28;20500;-72
2022/06/10 08:22:32;;;;;;;8.52;3.00;;;18.40;99.90;;;;;;5009891;28;20041;-72
2022/06/10 08:24:18;;;;;;;11.00;3.33;;;18.30;99.90;;;;;;5009943;28;20412;-71
2022/06/10 08:26:43;;;;;;;9.68;3.25;;;18.20;99.90;;;;;;5013151;28;20037;-71
2022/06/10 08:29:10;;;;;;;8.70;3.53;;;18.10;99.90;;;;;;5012691;28;20053;-72
2022/06/10 08:31:36;;;;;;;10.18;3.10;;;18.10;99.90;;;;;;5011423;28;20070;-71
2022/06/10 08:34:02;;;;;;;9.98;3.17;;;18.10;99.90;;;;;;5011548;28;20057;-71
2022/06/10 08:36:29;;;;;;;7.50;2.67;;;18.10;99.90;;;;;;5011465;28;20450;-71
2022/06/10 08:38:55;;;;;;;12.95;2.92;;;18.20;99.90;;;;;;4994778;28;20119;-71
2022/06/10 08:41:27;;;;;;;9.68;3.10;;;18.30;99.90;;;;;;5009710;28;20100;-71
2022/06/10 08:44:09;;;;;;;7.70;2.65;;;18.40;99.90;;;;;;5007141;28;20123;-71
2022/06/10 08:46:58;;;;;;;11.38;2.80;;;18.50;99.90;;;;;;5011524;28;20072;-72
2022/06/10 08:49:26;;;;;;;10.82;2.55;;;18.60;99.90;;;;;;5009711;28;20060;-71
2022/06/10 08:52:00;;;;;;;6.63;2.13;;;18.70;99.90;;;;;;4983650;28;20674;-71
2022/06/10 08:54:53;;;;;;;10.18;2.95;;;18.70;99.90;;;;;;5002446;28;20117;-71
2022/06/10 08:57:30;;;;;;;8.68;2.90;;;18.80;99.90;;;;;;5028266;28;20049;-71
2022/06/10 08:59:57;;;;;;;9.65;3.20;;;18.80;99.90;;;;;;5006160;28;20044;-71
2022/06/10 09:02:31;;;;;;;8.38;2.38;;;18.90;99.90;;;;;;5010006;28;20095;-72
2022/06/10 09:05:01;;;;;;;;;;;19.10;99.90;;;;;;5012608;28;20079;-72
2022/06/10 09:07:41;;;;;;;13.45;3.08;;;19.10;99.90;;;;;;5009969;28;20391;-71
2022/06/10 09:10:14;;;;;;;7.95;2.70;;;19.20;99.90;;;;;;5007360;28;20366;-71
2022/06/10 09:13:01;;;;;;;11.30;2.85;;;19.20;99.90;;;;;;4984556;28;20049;-71
2022/06/10 09:15:29;;;;;;;7.72;2.70;;;19.10;99.90;;;;;;5011452;28;20041;-71
2022/06/10 09:18:04;;;;;;;10.90;3.10;;;18.90;99.90;;;;;;5009901;28;20053;-71
2022/06/10 09:20:49;;;;;;;6.93;2.20;;;18.80;99.90;;;;;;5011481;28;20106;-71
2022/06/10 09:23:22;;;;;;;13.30;3.28;;;18.70;99.90;;;;;;5009299;28;20064;-71
2022/06/10 09:25:54;;;;;;;9.20;3.00;;;18.60;99.90;;;;;;5012882;28;20046;-71
2022/06/10 09:28:20;;;;;;;9.95;2.60;;;18.60;99.90;;;;;;5012181;28;20049;-71
2022/06/10 09:30:56;;;;;;;7.35;2.50;;;18.50;99.90;;;;;;5011333;28;20493;-71
2022/06/10 09:34:10;;;;;;;8.95;2.70;;;18.60;99.90;;;;;;5010232;28;20053;-71
2022/06/10 09:37:15;;;;;;;9.35;2.90;;;18.60;99.90;;;;;;4940681;28;20368;-71
2022/06/10 09:42:40;;;;;;;9.77;3.50;;;18.50;99.90;;;;;;5030154;28;20052;-71
2022/06/10 09:45:18;;;;;;;13.05;2.97;;;18.50;99.90;;;;;;5010223;28;20053;-71
2022/06/10 09:47:55;;;;;;;8.32;2.88;;;18.40;99.90;;;;;;5009877;28;20119;-71
2022/06/10 09:50:46;;;;;;;8.90;2.35;;;18.40;99.90;;;;;;5012281;28;20493;-71
2022/06/10 09:53:28;;;;;;;12.13;3.00;;;18.40;99.90;;;;;;4999424;28;20103;-71
2022/06/10 09:55:53;;;;;;;8.73;2.03;;;18.40;99.90;;;;;;5004888;28;20102;-71
2022/06/10 09:58:41;;;;;;;12.15;2.72;;;18.70;99.90;;;;;;5009912;28;20045;-71
2022/06/10 10:01:34;;;;;;;16.20;3.20;;;18.90;99.90;;;;;;5012938;28;20409;-71
2022/06/10 10:04:32;;;;;;;10.02;2.45;;;19.50;99.90;;;;;;5011500;28;20112;-71
2022/06/10 10:07:18;;;;;;;8.52;2.10;;;20.00;99.90;;;;;;5011524;28;20060;-71
2022/06/10 10:10:13;;;;;;;9.50;2.60;;;20.30;99.90;;;;;;5009651;28;20485;-71
2022/06/10 10:12:55;;;;;;;10.25;2.58;;;20.50;99.90;;;;;;4995345;28;20125;-72
2022/06/10 10:15:32;;;;;;;8.73;2.78;;;20.80;99.90;;;;;;5012498;28;20045;-71
2022/06/10 10:18:15;;;;;;;10.43;2.45;;;20.90;99.90;;;;;;5007611;28;20053;-71
2022/06/10 10:20:51;;;;;;;11.90;2.30;;;20.70;99.90;;;;;;5012297;28;20191;-71
2022/06/10 10:23:21;;;;;;;7.85;2.30;;;20.80;99.90;;;;;;5012619;28;20481;-71
2022/06/10 10:25:48;;;;;;;9.50;2.20;;;20.80;99.90;;;;;;5031193;28;20394;-72
2022/06/10 10:28:20;;;;;;;10.30;2.30;;;20.90;99.90;;;;;;5031582;28;20037;-72
2022/06/10 10:31:17;;;;;;;9.05;2.25;;;21.10;99.90;;;;;;5013545;28;20068;-72
2022/06/10 10:33:44;;;;;;;12.27;2.35;;;21.30;99.90;;;;;;5014926;28;20436;-72
2022/06/10 10:36:21;;;;;;;6.72;1.85;;;21.60;99.90;;;;;;5015681;28;20068;-72
2022/06/10 10:38:48;;;;;;;9.07;2.30;;;21.80;99.90;;;;;;5011620;28;20049;-72
2022/06/10 10:41:36;;;;;;;10.60;2.65;;;21.90;99.90;;;;;;5016085;28;20132;-72
2022/06/10 10:44:20;;;;;;;9.30;2.05;;;21.70;99.90;;;;;;5014568;28;20063;-72
2022/06/10 10:47:02;;;;;;;5.83;1.90;;;21.60;99.90;;;;;;5029607;28;20118;-72
2022/06/10 10:49:32;;;;;;;8.00;2.08;;;21.60;99.90;;;;;;5012939;28;20064;-72
2022/06/10 10:51:58;;;;;;;7.40;2.00;;;21.50;99.90;;;;;;5013262;28;20072;-73
2022/06/10 10:54:33;;;;;;;7.38;2.08;;;21.40;99.90;;;;;;5031287;28;20523;-73
2022/06/10 10:57:00;;;;;;;9.23;2.08;;;21.30;99.90;;;;;;4993279;28;20045;-72
2022/06/10 10:59:32;;;;;;;9.32;1.88;;;21.30;99.90;;;;;;5014781;28;20041;-72
2022/06/10 11:01:58;;;;;;;9.05;2.20;;;21.30;99.90;;;;;;5013674;28;20385;-72
2022/06/10 11:04:26;;;;;;;8.40;2.17;;;21.30;99.90;;;;;;4996561;28;20080;-72
2022/06/10 11:07:05;;;;;;;8.80;2.20;;;21.20;99.90;;;;;;5012522;28;20123;-73
2022/06/10 11:09:41;;;;;;;8.30;2.10;;;21.20;99.90;;;;;;5014453;28;20512;-73
2022/06/10 11:12:16;;;;;;;9.60;2.50;;;21.10;99.90;;;;;;5017286;28;20045;-72
2022/06/10 11:14:47;;;;;;;10.45;2.33;;;21.10;99.90;;;;;;5011410;28;20055;-72
2022/06/10 11:17:19;;;;;;;10.13;2.42;;;21.30;99.90;;;;;;5013728;28;20077;-72
2022/06/10 11:20:13;;;;;;;8.93;2.25;;;21.80;99.90;;;;;;5011038;28;20474;-73
2022/06/10 11:22:39;;;;;;;9.77;2.72;;;22.50;99.90;;;;;;5027892;28;20046;-73
2022/06/10 11:25:14;;;;;;;9.77;2.40;;;23.10;99.90;;;;;;5011639;28;20100;-73
2022/06/10 11:28:01;;;;;;;7.50;2.70;;;23.50;99.90;;;;;;5014737;28;20053;-73
2022/06/10 11:30:42;;;;;;;11.15;2.63;;;23.60;99.90;;;;;;5028115;28;20140;-73
2022/06/10 11:33:22;;;;;;;9.63;2.97;;;23.60;99.90;;;;;;5014399;28;20054;-73
2022/06/10 11:36:00;;;;;;;6.30;1.80;;;23.50;99.90;;;;;;5010335;28;20057;-73
2022/06/10 11:38:29;;;;;;;8.40;2.20;;;23.30;99.90;;;;;;5012105;28;20116;-73
2022/06/10 11:41:13;;;;;;;7.93;2.10;;;23.00;99.90;;;;;;4998321;28;20120;-73
2022/06/10 11:43:43;;;;;;;;;;;22.70;99.90;;;;;;4998167;28;20049;-73
2022/06/10 11:46:33;;;;;;;7.28;1.73;;;22.50;99.90;;;;;;4998495;28;19921;-73
2022/06/10 11:49:14;;;;;;;7.88;1.88;;;22.30;99.90;;;;;;5001185;28;20063;-73
2022/06/10 11:52:07;;;;;;;8.18;2.13;;;22.30;99.90;;;;;;5009844;28;20056;-73
2022/06/10 11:54:55;;;;;;;8.82;2.08;;;22.40;99.90;;;;;;5013825;28;20744;-73
2022/06/10 12:00:38;;;;;;;8.77;2.05;;;22.50;99.90;;;;;;5010623;28;20064;-73
2022/06/10 12:03:14;;;;;;;8.15;2.10;;;22.40;99.90;;;;;;4997595;28;20049;-73
2022/06/10 12:06:07;;;;;;;10.73;2.47;;;22.20;99.90;;;;;;5012532;28;20052;-73
2022/06/10 12:08:42;;;;;;;7.00;2.05;;;22.10;99.90;;;;;;4989848;28;20045;-72
2022/06/10 12:11:35;;;;;;;10.35;2.25;;;22.10;99.90;;;;;;5012930;28;20057;-72
2022/06/10 12:14:28;;;;;;;10.07;2.17;;;22.20;99.90;;;;;;5011070;28;20053;-73
2022/06/10 12:17:30;;;;;;;7.78;1.63;;;22.40;99.90;;;;;;5011841;28;20050;-73
2022/06/10 12:20:26;;;;;;;10.02;1.85;;;22.60;99.90;;;;;;4974457;28;20052;-73
2022/06/10 12:22:51;;;;;;;9.90;2.03;;;22.90;99.90;;;;;;5011125;28;20401;-73
2022/06/10 12:25:22;;;;;;;6.38;1.48;;;23.10;99.90;;;;;;5008843;28;20050;-73
2022/06/10 12:27:58;;;;;;;11.25;1.70;;;23.30;99.90;;;;;;5013781;28;20041;-73
2022/06/10 12:30:44;;;;;;;6.72;2.00;;;23.50;99.90;;;;;;5026841;28;20057;-73
2022/06/10 12:33:19;;;;;;;6.25;1.63;;;23.50;99.90;;;;;;5030267;28;20048;-74
2022/06/10 12:35:45;;;;;;;9.77;2.03;;;23.50;99.90;;;;;;5010734;28;20540;-69
2022/06/10 12:38:32;;;;;;;9.43;2.30;;;23.50;99.90;;;;;;5012032;28;20053;-69
2022/06/10 12:41:14;;;;;;;9.25;1.98;;;23.50;99.90;;;;;;5027245;28;20053;-69
2022/06/10 12:43:46;;;;;;;9.23;2.08;;;23.50;99.90;;;;;;5029592;28;20120;-69
2022/06/10 12:46:32;;;;;;;7.40;1.90;;;23.60;99.90;;;;;;5027663;28;20041;-69
2022/06/10 12:49:04;;;;;;;8.70;1.63;;;23.60;99.90;;;;;;5027544;28;20041;-69
2022/06/10 12:51:41;;;;;;;7.35;1.60;;;23.70;99.90;;;;;;5030708;28;20056;-69
2022/06/10 12:54:24;;;;;;;7.88;1.80;;;23.70;99.90;;;;;;5010700;28;20274;-69
2022/06/10 12:57:25;;;;;;;12.23;2.08;;;23.60;99.90;;;;;;5006178;28;20111;-69
2022/06/10 13:00:17;;;;;;;10.38;2.10;;;23.40;98.80;;;;;;5028958;28;20037;-69
2022/06/10 13:02:50;;;;;;;8.25;1.92;;;23.20;98.70;;;;;;5030127;28;20044;-69
2022/06/10 13:05:26;;;;;;;13.07;2.65;;;22.90;98.60;;;;;;5023046;28;20049;-69
2022/06/10 13:07:55;;;;;;;9.40;2.00;;;22.80;99.20;;;;;;5029811;28;20041;-69
2022/06/10 13:10:35;;;;;;;8.60;1.80;;;22.60;99.90;;;;;;5012167;28;20049;-69
2022/06/10 13:13:31;;;;;;;6.72;1.52;;;22.60;99.90;;;;;;5011331;28;20061;-69
2022/06/10 13:16:23;;;;;;;8.95;1.92;;;22.60;99.90;;;;;;5028205;28;20119;-69
2022/06/10 13:18:59;;;;;;;5.78;1.60;;;22.60;99.90;;;;;;5020856;28;20077;-69
2022/06/10 13:21:34;;;;;;;7.03;1.63;;;22.50;99.90;;;;;;5029628;28;20034;-69
2022/06/10 13:24:09;;;;;;;6.30;1.90;;;22.60;99.90;;;;;;5010858;28;20532;-69
2022/06/10 13:26:35;;;;;;;6.32;1.98;;;22.90;99.90;;;;;;5029568;28;20044;-69
2022/06/10 13:29:11;;;;;;;9.82;2.50;;;23.10;99.90;;;;;;5010775;28;20061;-69